Time;durP1;ratioP1;P1;durP2;ratioP2;P2;SDS_P1;SDS_P2;PMS_P1;PMS_P2;Temp;Humidity;BMP_temperature;BMP_pressure;BME280_temperature;BME280_humidity;BME280_pressure;Samples;Min_cycle;Max_cycle;Signal;HPM_P1;HPM_P2
2023/09/30 00:01:15;;;;;;;0.97;0.87;;;;;;;;;;5072796;28;20451;-61
2023/09/30 00:03:42;;;;;;;1.20;0.93;;;;;;;;;;5072884;28;20483;-60
2023/09/30 00:06:11;;;;;;;3.90;1.10;;;;;;;;;;5072756;28;20941;-61
2023/09/30 00:08:39;;;;;;;1.20;1.10;;;;;;;;;;5072872;28;20530;-61
2023/09/30 00:11:06;;;;;;;1.17;0.90;;;;;;;;;;5072795;28;20451;-60
2023/09/30 00:13:33;;;;;;;2.60;0.97;;;;;;;;;;5072680;28;20458;-61
2023/09/30 00:16:00;;;;;;;2.83;1.20;;;;;;;;;;5072650;28;20952;-61
2023/09/30 00:18:27;;;;;;;1.00;0.90;;;;;;;;;;5072866;28;21009;-61
2023/09/30 00:20:54;;;;;;;1.50;1.20;;;;;;;;;;5072731;28;20447;-60
2023/09/30 00:23:23;;;;;;;2.17;1.00;;;;;;;;;;5072473;28;20475;-60
2023/09/30 00:25:51;;;;;;;4.07;1.43;;;;;;;;;;5072539;28;20951;-61
2023/09/30 00:28:18;;;;;;;3.50;0.97;;;;;;;;;;5072499;28;21016;-61
2023/09/30 00:30:47;;;;;;;2.93;1.20;;;;;;;;;;5072781;28;20443;-61
2023/09/30 00:33:14;;;;;;;1.10;1.00;;;;;;;;;;5072560;28;20526;-61
2023/09/30 00:35:41;;;;;;;2.40;1.30;;;;;;;;;;5072573;28;20447;-61
2023/09/30 00:38:09;;;;;;;3.97;1.60;;;;;;;;;;5072397;28;20495;-61
2023/09/30 00:40:38;;;;;;;3.30;1.40;;;;;;;;;;5072508;28;20479;-60
2023/09/30 00:43:05;;;;;;;1.60;1.20;;;;;;;;;;5072572;28;20517;-61
2023/09/30 00:45:32;;;;;;;2.70;1.63;;;;;;;;;;5072550;28;20891;-61
2023/09/30 00:47:59;;;;;;;2.60;1.27;;;;;;;;;;5072482;28;20439;-61
2023/09/30 00:50:26;;;;;;;3.47;1.60;;;;;;;;;;5073909;28;20547;-61
2023/09/30 00:52:53;;;;;;;2.63;2.37;;;;;;;;;;5076059;28;20447;-61
2023/09/30 00:55:21;;;;;;;3.03;1.53;;;;;;;;;;5075900;28;20953;-61
2023/09/30 00:57:49;;;;;;;3.53;1.97;;;;;;;;;;5076143;28;20446;-61
2023/09/30 01:00:17;;;;;;;5.37;2.03;;;;;;;;;;5075977;28;20450;-61
2023/09/30 01:02:44;;;;;;;5.93;2.13;;;;;;;;;;5075801;28;20471;-60
2023/09/30 01:05:11;;;;;;;4.27;1.90;;;;;;;;;;5075926;28;20447;-60
2023/09/30 01:07:38;;;;;;;3.33;2.00;;;;;;;;;;5075682;28;21002;-60
2023/09/30 01:10:06;;;;;;;12.10;2.93;;;;;;;;;;5075690;28;20443;-60
2023/09/30 01:12:34;;;;;;;6.30;2.10;;;;;;;;;;5075847;28;20447;-61
2023/09/30 01:15:04;;;;;;;3.57;2.43;;;;;;;;;;5075772;28;20482;-61
2023/09/30 01:17:32;;;;;;;7.13;2.60;;;;;;;;;;5075733;28;20443;-60
2023/09/30 01:19:59;;;;;;;7.40;2.30;;;;;;;;;;5075562;28;20440;-60
2023/09/30 01:22:30;;;;;;;4.30;1.83;;;;;;;;;;5075474;28;20439;-61
2023/09/30 01:24:56;;;;;;;6.60;2.17;;;;;;;;;;5075672;28;20447;-61
2023/09/30 01:27:23;;;;;;;4.70;2.20;;;;;;;;;;5075561;28;20446;-60
2023/09/30 01:29:50;;;;;;;7.60;2.70;;;;;;;;;;5075267;28;20471;-60
2023/09/30 01:32:17;;;;;;;2.90;1.70;;;;;;;;;;5075480;28;20509;-60
2023/09/30 01:34:45;;;;;;;8.60;2.60;;;;;;;;;;5075307;28;20818;-60
2023/09/30 01:37:11;;;;;;;10.13;2.57;;;;;;;;;;5074934;28;20483;-60
2023/09/30 01:39:40;;;;;;;6.03;2.70;;;;;;;;;;5075354;28;20443;-61
2023/09/30 01:42:07;;;;;;;6.13;2.17;;;;;;;;;;5075187;28;20538;-60
2023/09/30 01:44:34;;;;;;;5.37;2.03;;;;;;;;;;5075062;28;20604;-60
2023/09/30 01:47:01;;;;;;;4.57;2.43;;;;;;;;;;5075126;28;20951;-60
2023/09/30 01:49:27;;;;;;;3.80;2.40;;;;;;;;;;5074923;28;20459;-60
2023/09/30 01:51:54;;;;;;;4.80;2.70;;;;;;;;;;5075136;28;20564;-60
2023/09/30 01:54:21;;;;;;;7.40;2.40;;;;;;;;;;5075038;28;20542;-61
2023/09/30 01:56:50;;;;;;;6.20;2.73;;;;;;;;;;5074980;28;20879;-60
2023/09/30 01:59:17;;;;;;;8.17;2.67;;;;;;;;;;5074937;28;20451;-60
2023/09/30 02:01:45;;;;;;;8.50;2.57;;;;;;;;;;5074022;28;20473;-60
2023/09/30 02:04:12;;;;;;;7.23;2.50;;;;;;;;;;5074563;28;20475;-60
2023/09/30 02:06:40;;;;;;;7.30;2.70;;;;;;;;;;5074842;28;20448;-60
2023/09/30 02:09:08;;;;;;;9.23;3.00;;;;;;;;;;5074814;28;20436;-60
2023/09/30 02:11:35;;;;;;;7.83;3.03;;;;;;;;;;5074595;28;20439;-60
2023/09/30 02:14:05;;;;;;;6.70;2.30;;;;;;;;;;5074572;28;20471;-60
2023/09/30 02:16:32;;;;;;;6.23;3.00;;;;;;;;;;5074463;28;20450;-60
2023/09/30 02:18:59;;;;;;;7.80;3.03;;;;;;;;;;5074617;28;20530;-60
2023/09/30 02:21:28;;;;;;;10.90;2.50;;;;;;;;;;5074527;28;20439;-60
2023/09/30 02:23:55;;;;;;;8.27;2.87;;;;;;;;;;5074330;28;20475;-60
2023/09/30 02:26:25;;;;;;;7.23;2.90;;;;;;;;;;5074200;28;20950;-60
2023/09/30 02:28:52;;;;;;;4.17;2.33;;;;;;;;;;5074260;28;20958;-60
2023/09/30 02:31:20;;;;;;;10.50;2.53;;;;;;;;;;5074062;28;20471;-60
2023/09/30 02:33:47;;;;;;;6.87;2.53;;;;;;;;;;5074005;28;21025;-60
2023/09/30 02:36:15;;;;;;;6.80;2.70;;;;;;;;;;5074208;28;20542;-60
2023/09/30 02:38:43;;;;;;;14.27;3.17;;;;;;;;;;5073844;28;20477;-61
2023/09/30 02:41:10;;;;;;;5.33;3.03;;;;;;;;;;5074056;28;20448;-61
2023/09/30 02:43:38;;;;;;;8.97;2.27;;;;;;;;;;5073758;28;20479;-61
2023/09/30 02:46:05;;;;;;;8.70;3.00;;;;;;;;;;5074032;28;20476;-61
2023/09/30 02:48:33;;;;;;;9.30;3.10;;;;;;;;;;5073975;28;20482;-61
2023/09/30 02:51:00;;;;;;;6.83;2.70;;;;;;;;;;5073849;28;20519;-61
2023/09/30 02:53:27;;;;;;;11.97;2.67;;;;;;;;;;5073821;28;20435;-61
2023/09/30 02:55:56;;;;;;;8.30;3.60;;;;;;;;;;5073704;28;20446;-61
2023/09/30 02:58:23;;;;;;;8.93;2.63;;;;;;;;;;5073532;28;20789;-60
2023/09/30 03:00:50;;;;;;;8.57;2.77;;;;;;;;;;5073780;28;20440;-61
2023/09/30 03:03:17;;;;;;;9.30;3.70;;;;;;;;;;5073574;28;20522;-61
2023/09/30 03:05:47;;;;;;;4.63;2.40;;;;;;;;;;5073644;28;20520;-61
2023/09/30 03:08:14;;;;;;;9.83;2.97;;;;;;;;;;5073567;28;20509;-61
2023/09/30 03:10:41;;;;;;;5.93;2.70;;;;;;;;;;5073360;28;20447;-61
2023/09/30 03:13:08;;;;;;;5.60;2.83;;;;;;;;;;5073561;28;20455;-61
2023/09/30 03:15:35;;;;;;;7.57;2.90;;;;;;;;;;5073486;28;20481;-61
2023/09/30 03:18:03;;;;;;;7.80;2.87;;;;;;;;;;5073472;28;20454;-61
2023/09/30 03:20:30;;;;;;;5.40;3.07;;;;;;;;;;5073366;28;20450;-61
2023/09/30 03:22:59;;;;;;;5.63;2.37;;;;;;;;;;5073269;28;20483;-61
2023/09/30 03:25:26;;;;;;;6.27;2.73;;;;;;;;;;5073055;28;20490;-61
2023/09/30 03:27:53;;;;;;;9.00;2.80;;;;;;;;;;5073292;28;20450;-61
2023/09/30 03:30:20;;;;;;;9.97;3.03;;;;;;;;;;5073325;28;20473;-61
2023/09/30 03:32:47;;;;;;;4.87;2.37;;;;;;;;;;5073244;28;20455;-61
2023/09/30 03:35:16;;;;;;;9.27;2.60;;;;;;;;;;5073092;28;20458;-61
2023/09/30 03:37:44;;;;;;;7.60;3.87;;;;;;;;;;5072888;28;20467;-61
2023/09/30 03:40:14;;;;;;;10.50;3.23;;;;;;;;;;5072984;28;20445;-60
2023/09/30 03:42:42;;;;;;;6.20;2.37;;;;;;;;;;5073143;28;20475;-61
2023/09/30 03:45:09;;;;;;;9.03;3.07;;;;;;;;;;5073034;28;20486;-61
2023/09/30 03:47:37;;;;;;;7.47;2.63;;;;;;;;;;5073083;28;20480;-61
2023/09/30 03:50:04;;;;;;;6.47;2.60;;;;;;;;;;5072931;28;20483;-61
2023/09/30 03:52:32;;;;;;;8.50;2.57;;;;;;;;;;5072885;28;20494;-61
2023/09/30 03:55:00;;;;;;;11.43;2.97;;;;;;;;;;5072856;28;20966;-61
2023/09/30 03:57:28;;;;;;;8.27;3.10;;;;;;;;;;5073029;28;20878;-61
2023/09/30 03:59:55;;;;;;;8.67;3.07;;;;;;;;;;5072943;28;20440;-60
2023/09/30 04:02:22;;;;;;;9.10;3.13;;;;;;;;;;5072862;28;20597;-61
2023/09/30 04:04:52;;;;;;;9.17;3.00;;;;;;;;;;5072730;28;20479;-61
2023/09/30 04:07:19;;;;;;;9.30;2.90;;;;;;;;;;5073253;28;20439;-61
2023/09/30 04:09:46;;;;;;;6.80;2.83;;;;;;;;;;5072896;28;20793;-61
2023/09/30 04:12:13;;;;;;;6.20;2.57;;;;;;;;;;5072887;28;20535;-61
2023/09/30 04:14:41;;;;;;;5.60;2.23;;;;;;;;;;5072731;28;20526;-61
2023/09/30 04:17:09;;;;;;;9.70;3.00;;;;;;;;;;5072723;28;20867;-60
2023/09/30 04:19:36;;;;;;;5.30;2.63;;;;;;;;;;5072545;28;20454;-61
2023/09/30 04:22:03;;;;;;;6.07;2.70;;;;;;;;;;5072816;28;20534;-61
2023/09/30 04:24:30;;;;;;;7.87;2.80;;;;;;;;;;5072848;28;20486;-61
2023/09/30 04:27:02;;;;;;;5.47;2.87;;;;;;;;;;5076635;28;20530;-60
2023/09/30 04:29:30;;;;;;;8.67;3.13;;;;;;;;;;5076575;28;20482;-61
2023/09/30 04:31:58;;;;;;;9.70;3.30;;;;;;;;;;5076399;28;20443;-61
2023/09/30 04:34:27;;;;;;;7.10;2.30;;;;;;;;;;5076544;28;20486;-61
2023/09/30 04:36:54;;;;;;;6.93;2.73;;;;;;;;;;5076322;28;20882;-61
2023/09/30 04:39:21;;;;;;;10.93;2.97;;;;;;;;;;5076528;28;20450;-61
2023/09/30 04:41:48;;;;;;;10.73;3.77;;;;;;;;;;5076337;28;20450;-61
2023/09/30 04:44:16;;;;;;;7.03;2.60;;;;;;;;;;5076120;28;20489;-61
2023/09/30 04:46:45;;;;;;;7.97;3.20;;;;;;;;;;5076124;28;20443;-61
2023/09/30 04:49:14;;;;;;;6.93;2.90;;;;;;;;;;5076326;28;20505;-61
2023/09/30 04:51:41;;;;;;;7.63;2.40;;;;;;;;;;5076019;28;20972;-61
2023/09/30 04:54:09;;;;;;;6.57;2.93;;;;;;;;;;5076495;28;20568;-60
2023/09/30 04:56:36;;;;;;;5.50;3.93;;;;;;;;;;5075885;28;20447;-60
2023/09/30 04:59:04;;;;;;;7.47;4.17;;;;;;;;;;5075808;28;20443;-60
2023/09/30 05:01:31;;;;;;;13.83;5.50;;;;;;;;;;5076071;28;20451;-60
2023/09/30 05:03:58;;;;;;;9.47;5.03;;;;;;;;;;5075912;28;20467;-59
2023/09/30 05:06:26;;;;;;;8.77;4.40;;;;;;;;;;5075904;28;20603;-60
2023/09/30 05:08:55;;;;;;;8.20;4.40;;;;;;;;;;5075866;28;20472;-60
2023/09/30 05:11:22;;;;;;;9.40;3.80;;;;;;;;;;5076220;28;20497;-60
2023/09/30 05:13:49;;;;;;;7.03;3.47;;;;;;;;;;5075595;28;20538;-60
2023/09/30 05:16:16;;;;;;;7.27;3.60;;;;;;;;;;5075519;28;21012;-60
2023/09/30 05:18:43;;;;;;;5.43;3.83;;;;;;;;;;5075511;28;20934;-60
2023/09/30 05:21:10;;;;;;;8.80;3.30;;;;;;;;;;5075700;28;20810;-60
2023/09/30 05:23:38;;;;;;;8.53;3.60;;;;;;;;;;5075538;28;20811;-60
2023/09/30 05:26:05;;;;;;;5.10;2.43;;;;;;;;;;5075363;28;20514;-60
2023/09/30 05:28:34;;;;;;;9.27;3.57;;;;;;;;;;5075600;28;20526;-60
2023/09/30 05:31:02;;;;;;;5.10;3.13;;;;;;;;;;5075553;28;20812;-60
2023/09/30 05:33:29;;;;;;;10.27;3.00;;;;;;;;;;5075408;28;20447;-60
2023/09/30 05:35:56;;;;;;;4.23;3.13;;;;;;;;;;5074601;28;20942;-60
2023/09/30 05:38:24;;;;;;;5.10;2.90;;;;;;;;;;5074486;28;20481;-59
2023/09/30 05:40:54;;;;;;;10.10;2.90;;;;;;;;;;5075054;28;20449;-60
2023/09/30 05:43:21;;;;;;;7.27;3.57;;;;;;;;;;5075581;28;20443;-60
2023/09/30 05:45:54;;;;;;;10.13;3.50;;;;;;;;;;5075133;28;20483;-60
2023/09/30 05:48:21;;;;;;;10.27;4.03;;;;;;;;;;5075413;28;20493;-60
2023/09/30 05:50:48;;;;;;;8.73;3.07;;;;;;;;;;5075040;28;20934;-60
2023/09/30 05:53:15;;;;;;;8.20;3.40;;;;;;;;;;5074961;28;20853;-60
2023/09/30 05:55:43;;;;;;;5.77;2.60;;;;;;;;;;5075111;28;20527;-60
2023/09/30 05:58:13;;;;;;;10.37;3.27;;;;;;;;;;5075081;28;20865;-60
2023/09/30 06:00:41;;;;;;;6.13;3.10;;;;;;;;;;5075152;28;20777;-60
2023/09/30 06:03:08;;;;;;;13.53;4.43;;;;;;;;;;5074715;28;20444;-60
2023/09/30 06:05:35;;;;;;;8.27;3.87;;;;;;;;;;5074522;28;20485;-60
2023/09/30 06:08:04;;;;;;;11.50;3.43;;;;;;;;;;5075056;28;20450;-60
2023/09/30 06:10:31;;;;;;;5.77;3.00;;;;;;;;;;5074597;28;21002;-60
2023/09/30 06:12:59;;;;;;;8.53;2.73;;;;;;;;;;5074751;28;20874;-60
2023/09/30 06:15:28;;;;;;;7.97;2.87;;;;;;;;;;5074609;28;20443;-60
2023/09/30 06:17:55;;;;;;;9.90;3.03;;;;;;;;;;5074520;28;20452;-60
2023/09/30 06:20:25;;;;;;;8.70;4.10;;;;;;;;;;5074333;28;20475;-60
2023/09/30 06:22:53;;;;;;;6.67;2.87;;;;;;;;;;5074470;28;20498;-60
2023/09/30 06:25:21;;;;;;;6.50;2.50;;;;;;;;;;5074308;28;20483;-60
2023/09/30 06:27:49;;;;;;;7.87;3.30;;;;;;;;;;5074390;28;20445;-59
2023/09/30 06:30:17;;;;;;;4.00;2.30;;;;;;;;;;5074213;28;20439;-60
2023/09/30 06:32:45;;;;;;;5.33;3.43;;;;;;;;;;5074223;28;20530;-59
2023/09/30 06:35:12;;;;;;;7.27;2.60;;;;;;;;;;5074082;28;20930;-60
2023/09/30 06:37:40;;;;;;;8.37;3.17;;;;;;;;;;5074167;28;20478;-60
2023/09/30 06:40:08;;;;;;;7.80;3.20;;;;;;;;;;5074105;28;20439;-60
2023/09/30 06:42:35;;;;;;;9.77;3.43;;;;;;;;;;5074003;28;20471;-60
2023/09/30 06:45:05;;;;;;;8.23;3.10;;;;;;;;;;5073761;28;20490;-60
2023/09/30 06:47:33;;;;;;;9.90;2.97;;;;;;;;;;5073519;28;20497;-60
2023/09/30 06:50:07;;;;;;;7.53;3.17;;;;;;;;;;5073716;28;20935;-60
2023/09/30 06:52:34;;;;;;;9.10;3.00;;;;;;;;;;5074166;28;20440;-60
2023/09/30 06:55:01;;;;;;;5.83;2.73;;;;;;;;;;5073774;28;20447;-60
2023/09/30 06:57:28;;;;;;;6.90;2.70;;;;;;;;;;5073709;28;20444;-60
2023/09/30 06:59:56;;;;;;;10.40;3.87;;;;;;;;;;5073497;28;20451;-60
2023/09/30 07:02:23;;;;;;;9.33;3.87;;;;;;;;;;5073786;28;20470;-60
2023/09/30 07:04:50;;;;;;;9.73;3.20;;;;;;;;;;5073605;28;20856;-61
2023/09/30 07:07:19;;;;;;;7.80;2.83;;;;;;;;;;5073601;28;21003;-60
2023/09/30 07:09:46;;;;;;;7.57;2.80;;;;;;;;;;5073368;28;20546;-61
2023/09/30 07:12:13;;;;;;;10.70;3.30;;;;;;;;;;5073312;28;20515;-61
2023/09/30 07:14:39;;;;;;;9.17;3.80;;;;;;;;;;5073259;28;20939;-61
2023/09/30 07:17:06;;;;;;;8.23;3.10;;;;;;;;;;5073492;28;20530;-61
2023/09/30 07:19:33;;;;;;;6.97;3.73;;;;;;;;;;5073427;28;20479;-61
2023/09/30 07:22:01;;;;;;;9.23;3.13;;;;;;;;;;5073248;28;20807;-61
2023/09/30 07:24:30;;;;;;;6.20;2.97;;;;;;;;;;5073022;28;20451;-61
2023/09/30 07:26:58;;;;;;;4.37;2.60;;;;;;;;;;5073062;28;20534;-61
2023/09/30 07:29:25;;;;;;;8.83;3.23;;;;;;;;;;5073315;28;20453;-61
2023/09/30 07:31:52;;;;;;;6.27;2.97;;;;;;;;;;5073247;28;20443;-61
2023/09/30 07:34:19;;;;;;;4.07;2.60;;;;;;;;;;5073211;28;20493;-61
2023/09/30 07:36:46;;;;;;;14.47;3.37;;;;;;;;;;5072903;28;20562;-61
2023/09/30 07:39:13;;;;;;;5.63;3.00;;;;;;;;;;5073302;28;20444;-61
2023/09/30 07:41:41;;;;;;;8.90;3.00;;;;;;;;;;5072898;28;20458;-61
2023/09/30 07:44:09;;;;;;;7.20;3.20;;;;;;;;;;5073213;28;20449;-61
2023/09/30 07:46:36;;;;;;;21.07;3.67;;;;;;;;;;5073064;28;20828;-61
2023/09/30 07:49:03;;;;;;;7.50;3.60;;;;;;;;;;5073026;28;20542;-61
2023/09/30 07:51:30;;;;;;;12.63;2.93;;;;;;;;;;5072890;28;20447;-61
2023/09/30 07:53:58;;;;;;;8.37;3.30;;;;;;;;;;5073122;28;20534;-61
2023/09/30 07:56:25;;;;;;;5.63;2.83;;;;;;;;;;5073124;28;20450;-61
2023/09/30 07:58:53;;;;;;;7.93;3.20;;;;;;;;;;5073102;28;20849;-61
2023/09/30 08:01:21;;;;;;;6.00;2.93;;;;;;;;;;5072656;28;20440;-61
2023/09/30 08:03:48;;;;;;;10.80;3.30;;;;;;;;;;5072889;28;20439;-61
2023/09/30 08:06:15;;;;;;;8.80;3.53;;;;;;;;;;5072861;28;20514;-62
2023/09/30 08:08:42;;;;;;;6.10;3.10;;;;;;;;;;5072611;28;20446;-62
2023/09/30 08:11:09;;;;;;;10.43;3.43;;;;;;;;;;5072846;28;20443;-61
2023/09/30 08:13:36;;;;;;;8.40;2.93;;;;;;;;;;5072714;28;20952;-60
2023/09/30 08:16:05;;;;;;;9.60;3.70;;;;;;;;;;5072693;28;20448;-61
2023/09/30 08:18:32;;;;;;;11.90;3.37;;;;;;;;;;5073022;28;20443;-60
2023/09/30 08:20:59;;;;;;;6.60;3.20;;;;;;;;;;5073066;28;20447;-61
2023/09/30 08:23:26;;;;;;;6.47;2.50;;;;;;;;;;5072497;28;20490;-61
2023/09/30 08:25:54;;;;;;;10.30;3.60;;;;;;;;;;5072832;28;21076;-61
2023/09/30 08:28:22;;;;;;;4.40;2.60;;;;;;;;;;5072575;28;20483;-61
2023/09/30 08:30:50;;;;;;;6.50;2.80;;;;;;;;;;5072732;28;20788;-61
2023/09/30 08:33:18;;;;;;;8.73;3.07;;;;;;;;;;5072313;28;20982;-61
2023/09/30 08:35:45;;;;;;;4.87;2.63;;;;;;;;;;5072366;28;20526;-61
2023/09/30 08:38:12;;;;;;;11.00;3.20;;;;;;;;;;5072504;28;20481;-61
2023/09/30 08:40:40;;;;;;;4.27;2.80;;;;;;;;;;5072538;28;20542;-61
2023/09/30 08:43:07;;;;;;;9.53;3.43;;;;;;;;;;5072488;28;20477;-61
2023/09/30 08:45:34;;;;;;;7.77;2.87;;;;;;;;;;5072190;28;20558;-61
2023/09/30 08:48:05;;;;;;;10.53;3.57;;;;;;;;;;5072380;28;20789;-61
2023/09/30 08:50:33;;;;;;;9.90;3.03;;;;;;;;;;5072583;28;20458;-61
2023/09/30 08:53:03;;;;;;;10.23;3.40;;;;;;;;;;5072381;28;20454;-61
2023/09/30 08:55:30;;;;;;;7.10;2.80;;;;;;;;;;5072567;28;20493;-61
2023/09/30 08:57:58;;;;;;;5.90;2.30;;;;;;;;;;5072539;28;20530;-61
2023/09/30 09:00:25;;;;;;;8.97;3.20;;;;;;;;;;5072264;28;20475;-61
2023/09/30 09:02:52;;;;;;;6.77;2.87;;;;;;;;;;5072379;28;20538;-61
2023/09/30 09:05:19;;;;;;;7.97;2.70;;;;;;;;;;5072319;28;20506;-61
2023/09/30 09:07:47;;;;;;;5.83;2.20;;;;;;;;;;5072228;28;20473;-61
2023/09/30 09:10:14;;;;;;;5.30;2.10;;;;;;;;;;5072097;28;20935;-61
2023/09/30 09:12:42;;;;;;;7.47;2.37;;;;;;;;;;5075563;28;20493;-61
2023/09/30 09:15:10;;;;;;;9.20;2.93;;;;;;;;;;5075669;28;20479;-62
2023/09/30 09:17:43;;;;;;;6.10;2.47;;;;;;;;;;5075221;28;20457;-60
2023/09/30 09:20:11;;;;;;;9.50;3.10;;;;;;;;;;5075543;28;20443;-60
2023/09/30 09:22:41;;;;;;;14.27;3.00;;;;;;;;;;5075578;28;20526;-60
2023/09/30 09:25:09;;;;;;;10.80;3.00;;;;;;;;;;5075372;28;20534;-60
2023/09/30 09:27:36;;;;;;;8.00;2.77;;;;;;;;;;5075370;28;20450;-60
2023/09/30 09:30:16;;;;;;;10.60;2.87;;;;;;;;;;5075157;28;20455;-60
2023/09/30 09:32:53;;;;;;;8.67;2.40;;;;;;;;;;5075672;28;20443;-60
2023/09/30 09:35:21;;;;;;;7.70;2.27;;;;;;;;;;5075398;28;20443;-60
2023/09/30 09:37:55;;;;;;;11.53;3.20;;;;;;;;;;5075327;28;21013;-60
2023/09/30 09:40:25;;;;;;;12.93;3.60;;;;;;;;;;5075157;28;20901;-60
2023/09/30 09:42:54;;;;;;;8.13;2.17;;;;;;;;;;5075338;28;20855;-60
2023/09/30 09:45:22;;;;;;;6.13;2.40;;;;;;;;;;5075149;28;20447;-60
2023/09/30 09:47:51;;;;;;;11.27;3.10;;;;;;;;;;5075103;28;20451;-60
2023/09/30 09:50:18;;;;;;;9.50;2.50;;;;;;;;;;5074928;28;21009;-60
2023/09/30 09:52:46;;;;;;;6.63;2.00;;;;;;;;;;5074868;28;20887;-60
2023/09/30 09:55:13;;;;;;;6.73;2.53;;;;;;;;;;5075044;28;20847;-60
2023/09/30 09:57:41;;;;;;;6.97;3.10;;;;;;;;;;5074968;28;20443;-60
2023/09/30 10:00:13;;;;;;;8.53;2.50;;;;;;;;;;5074764;28;20444;-60
2023/09/30 10:02:40;;;;;;;11.77;2.63;;;;;;;;;;5074803;28;20446;-60
2023/09/30 10:05:09;;;;;;;5.00;2.23;;;;;;;;;;5074821;28;20451;-60
2023/09/30 10:07:37;;;;;;;4.63;1.87;;;;;;;;;;5074577;28;20483;-60
2023/09/30 10:10:07;;;;;;;5.70;2.53;;;;;;;;;;5074811;28;20443;-60
2023/09/30 10:12:38;;;;;;;6.97;2.93;;;;;;;;;;5074738;28;20526;-60
2023/09/30 10:15:20;;;;;;;9.60;2.47;;;;;;;;;;5074624;28;20462;-60
2023/09/30 10:18:03;;;;;;;9.67;2.30;;;;;;;;;;5074170;28;20534;-60
2023/09/30 10:20:30;;;;;;;6.10;2.40;;;;;;;;;;5074590;28;20807;-60
2023/09/30 10:23:16;;;;;;;6.30;2.60;;;;;;;;;;5073889;28;20501;-60
2023/09/30 10:25:46;;;;;;;3.27;1.83;;;;;;;;;;5074307;28;20873;-60
2023/09/30 10:28:32;;;;;;;4.13;2.10;;;;;;;;;;5074141;28;20849;-60
2023/09/30 10:31:17;;;;;;;3.83;1.90;;;;;;;;;;5074271;28;20546;-60
2023/09/30 10:34:04;;;;;;;4.73;2.03;;;;;;;;;;5074696;28;20443;-61
2023/09/30 10:36:33;;;;;;;5.33;2.03;;;;;;;;;;5073719;28;20447;-61
2023/09/30 10:39:00;;;;;;;4.87;1.83;;;;;;;;;;5074069;28;20988;-61
2023/09/30 10:41:45;;;;;;;4.50;1.47;;;;;;;;;;5074014;28;20530;-61
2023/09/30 10:44:31;;;;;;;6.37;2.50;;;;;;;;;;5073734;28;20454;-61
2023/09/30 10:46:59;;;;;;;4.37;2.70;;;;;;;;;;5073754;28;20483;-60
2023/09/30 10:49:33;;;;;;;5.33;1.97;;;;;;;;;;5074032;28;20442;-61
2023/09/30 10:52:02;;;;;;;6.80;2.90;;;;;;;;;;5073890;28;20497;-61
2023/09/30 10:54:29;;;;;;;3.53;1.50;;;;;;;;;;5073731;28;20447;-60
2023/09/30 10:56:58;;;;;;;8.10;1.53;;;;;;;;;;5073790;28;20810;-60
2023/09/30 10:59:26;;;;;;;5.57;1.70;;;;;;;;;;5073567;28;20447;-61
2023/09/30 11:01:53;;;;;;;3.13;1.37;;;;;;;;;;5073813;28;20538;-60
2023/09/30 11:04:21;;;;;;;4.57;1.73;;;;;;;;;;5073762;28;20542;-60
2023/09/30 11:06:49;;;;;;;3.30;2.37;;;;;;;;;;5073531;28;20475;-60
2023/09/30 11:09:19;;;;;;;5.67;1.70;;;;;;;;;;5073654;28;20447;-60
2023/09/30 11:11:49;;;;;;;7.47;1.93;;;;;;;;;;5073491;28;20452;-60
2023/09/30 11:14:20;;;;;;;5.40;1.80;;;;;;;;;;5073461;28;20526;-61
2023/09/30 11:16:46;;;;;;;4.03;1.37;;;;;;;;;;5073578;28;20876;-61
2023/09/30 11:19:14;;;;;;;5.33;1.57;;;;;;;;;;5073716;28;20443;-61
2023/09/30 11:21:43;;;;;;;6.10;2.13;;;;;;;;;;5072987;28;20443;-61
2023/09/30 11:24:10;;;;;;;4.80;1.83;;;;;;;;;;5073047;28;20436;-61
2023/09/30 11:26:41;;;;;;;6.20;1.80;;;;;;;;;;5073105;28;20979;-61
2023/09/30 11:29:08;;;;;;;5.30;1.67;;;;;;;;;;5073284;28;20534;-61
2023/09/30 11:31:38;;;;;;;3.77;1.60;;;;;;;;;;5073268;28;20514;-61
2023/09/30 11:34:07;;;;;;;4.87;1.77;;;;;;;;;;5072775;28;20547;-61
2023/09/30 11:36:35;;;;;;;3.03;1.70;;;;;;;;;;5072618;28;20879;-61
2023/09/30 11:39:02;;;;;;;7.57;1.97;;;;;;;;;;5072929;28;20447;-61
2023/09/30 11:41:34;;;;;;;8.63;2.10;;;;;;;;;;5073127;28;20443;-61
2023/09/30 11:44:07;;;;;;;6.10;2.13;;;;;;;;;;5073117;28;20502;-61
2023/09/30 11:46:34;;;;;;;4.57;2.03;;;;;;;;;;5072988;28;20483;-61
2023/09/30 11:49:02;;;;;;;6.23;1.97;;;;;;;;;;5072944;28;20455;-61
2023/09/30 11:51:29;;;;;;;5.70;1.67;;;;;;;;;;5072927;28;20447;-61
2023/09/30 11:53:57;;;;;;;5.80;1.80;;;;;;;;;;5072733;28;20479;-61
2023/09/30 11:56:28;;;;;;;6.47;2.50;;;;;;;;;;5072975;28;21037;-61
2023/09/30 11:58:56;;;;;;;4.23;1.43;;;;;;;;;;5073038;28;20997;-61
2023/09/30 12:01:25;;;;;;;5.03;1.77;;;;;;;;;;5072740;28;20538;-61
2023/09/30 12:03:53;;;;;;;5.80;1.83;;;;;;;;;;5072727;28;20454;-62
2023/09/30 12:06:20;;;;;;;4.27;1.53;;;;;;;;;;5072533;28;20471;-61
2023/09/30 12:08:47;;;;;;;3.20;1.90;;;;;;;;;;5072902;28;20534;-61
2023/09/30 12:11:15;;;;;;;11.83;2.47;;;;;;;;;;5072764;28;20799;-61
2023/09/30 12:13:44;;;;;;;5.93;2.50;;;;;;;;;;5072760;28;20479;-61
2023/09/30 12:16:12;;;;;;;3.97;1.77;;;;;;;;;;5072703;28;20444;-61
2023/09/30 12:18:41;;;;;;;6.87;2.00;;;;;;;;;;5072450;28;20447;-61
2023/09/30 12:21:08;;;;;;;1.80;1.57;;;;;;;;;;5072497;28;20951;-61
2023/09/30 12:23:35;;;;;;;3.70;2.07;;;;;;;;;;5072698;28;20450;-61
2023/09/30 12:26:04;;;;;;;3.57;1.40;;;;;;;;;;5072561;28;20457;-61
2023/09/30 12:28:32;;;;;;;5.60;1.73;;;;;;;;;;5072858;28;20535;-62
2023/09/30 12:30:59;;;;;;;4.40;1.50;;;;;;;;;;5072476;28;20448;-61
2023/09/30 12:33:27;;;;;;;4.87;1.63;;;;;;;;;;5072380;28;20475;-61
2023/09/30 12:35:56;;;;;;;6.60;1.80;;;;;;;;;;5072588;28;20443;-61
2023/09/30 12:38:25;;;;;;;6.00;2.00;;;;;;;;;;5072329;28;20473;-61
2023/09/30 12:40:52;;;;;;;5.17;1.73;;;;;;;;;;5072433;28;20865;-61
2023/09/30 12:43:20;;;;;;;4.30;1.50;;;;;;;;;;5072361;28;20443;-61
2023/09/30 12:45:47;;;;;;;5.77;2.10;;;;;;;;;;5072842;28;20474;-61
2023/09/30 12:48:14;;;;;;;3.90;1.90;;;;;;;;;;5076376;28;20491;-63
2023/09/30 12:50:41;;;;;;;4.53;1.70;;;;;;;;;;5076260;28;20815;-60
2023/09/30 12:53:09;;;;;;;4.23;2.10;;;;;;;;;;5076096;28;20546;-60
2023/09/30 12:55:36;;;;;;;2.47;1.13;;;;;;;;;;5076290;28;20446;-60
2023/09/30 12:58:03;;;;;;;3.57;1.47;;;;;;;;;;5075928;28;20439;-61
2023/09/30 13:00:32;;;;;;;4.10;1.80;;;;;;;;;;5075869;28;20486;-61
2023/09/30 13:02:59;;;;;;;6.53;2.33;;;;;;;;;;5076111;28;20493;-61
2023/09/30 13:05:26;;;;;;;6.40;1.67;;;;;;;;;;5075915;28;20506;-60
2023/09/30 13:07:53;;;;;;;3.03;1.80;;;;;;;;;;5075830;28;20479;-61
2023/09/30 13:10:22;;;;;;;3.60;1.60;;;;;;;;;;5075822;28;20878;-60
2023/09/30 13:12:49;;;;;;;4.40;1.83;;;;;;;;;;5075592;28;20803;-60
2023/09/30 13:15:16;;;;;;;3.23;1.80;;;;;;;;;;5075857;28;20451;-61
2023/09/30 13:17:44;;;;;;;4.20;1.70;;;;;;;;;;5075715;28;20580;-61
2023/09/30 13:20:11;;;;;;;7.73;2.00;;;;;;;;;;5075678;28;20456;-61
2023/09/30 13:22:39;;;;;;;4.50;1.53;;;;;;;;;;5075571;28;20443;-61
2023/09/30 13:25:06;;;;;;;2.87;1.20;;;;;;;;;;5075439;28;20448;-61
2023/09/30 13:27:36;;;;;;;7.07;2.63;;;;;;;;;;5075321;28;20878;-60
2023/09/30 13:30:03;;;;;;;4.03;1.27;;;;;;;;;;5075660;28;20439;-61
2023/09/30 13:32:30;;;;;;;6.23;1.83;;;;;;;;;;5075088;28;20958;-61
2023/09/30 13:34:57;;;;;;;3.97;1.47;;;;;;;;;;5075478;28;20443;-61
2023/09/30 13:37:29;;;;;;;4.03;1.37;;;;;;;;;;5075225;28;20479;-61
2023/09/30 13:39:56;;;;;;;3.53;1.57;;;;;;;;;;5075284;28;20454;-61
2023/09/30 13:42:23;;;;;;;3.30;1.30;;;;;;;;;;5075384;28;20459;-61
2023/09/30 13:44:51;;;;;;;8.23;1.43;;;;;;;;;;5075233;28;20502;-61
2023/09/30 13:47:18;;;;;;;3.73;1.47;;;;;;;;;;5075092;28;20479;-61
2023/09/30 13:49:46;;;;;;;4.30;1.30;;;;;;;;;;5074983;28;20954;-60
2023/09/30 13:52:13;;;;;;;1.93;1.60;;;;;;;;;;5075058;28;20447;-61
2023/09/30 13:54:40;;;;;;;10.53;2.43;;;;;;;;;;5074803;28;21377;-61
2023/09/30 13:57:06;;;;;;;4.30;1.70;;;;;;;;;;5074386;28;20491;-61
2023/09/30 13:59:35;;;;;;;7.07;1.70;;;;;;;;;;5074507;28;20482;-61
2023/09/30 14:02:03;;;;;;;3.20;1.70;;;;;;;;;;5074746;28;20451;-61
2023/09/30 14:04:31;;;;;;;2.60;1.40;;;;;;;;;;5074760;28;20534;-60
2023/09/30 14:06:59;;;;;;;4.90;1.87;;;;;;;;;;5074537;28;20503;-61
2023/09/30 14:09:26;;;;;;;5.67;1.30;;;;;;;;;;5074873;28;20479;-61
2023/09/30 14:11:53;;;;;;;4.47;1.53;;;;;;;;;;5074756;28;20444;-60
2023/09/30 14:14:20;;;;;;;2.47;1.30;;;;;;;;;;5074649;28;20890;-61
2023/09/30 14:16:47;;;;;;;2.83;1.40;;;;;;;;;;5074816;28;20543;-60
2023/09/30 14:19:15;;;;;;;3.90;1.57;;;;;;;;;;5074577;28;20451;-60
2023/09/30 14:21:42;;;;;;;2.33;1.30;;;;;;;;;;5074342;28;20877;-60
2023/09/30 14:24:10;;;;;;;7.10;1.60;;;;;;;;;;5074545;28;20855;-60
2023/09/30 14:26:37;;;;;;;10.47;2.27;;;;;;;;;;5074364;28;20479;-60
2023/09/30 14:29:04;;;;;;;2.87;1.10;;;;;;;;;;5074369;28;20486;-60
2023/09/30 14:31:31;;;;;;;3.40;1.50;;;;;;;;;;5074231;28;20539;-60
2023/09/30 14:33:58;;;;;;;5.53;1.53;;;;;;;;;;5074163;28;20445;-60
2023/09/30 14:36:27;;;;;;;2.03;1.40;;;;;;;;;;5073850;28;20447;-60
2023/09/30 14:38:54;;;;;;;7.67;1.60;;;;;;;;;;5074217;28;20534;-60
2023/09/30 14:41:21;;;;;;;4.27;1.60;;;;;;;;;;5074138;28;20877;-60
2023/09/30 14:43:49;;;;;;;5.10;1.43;;;;;;;;;;5074081;28;20534;-61
2023/09/30 14:46:16;;;;;;;3.60;1.60;;;;;;;;;;5074063;28;20516;-61